Time;durP1;ratioP1;P1;durP2;ratioP2;P2;SDS_P1;SDS_P2;PMS_P1;PMS_P2;Temp;Humidity;BMP_temperature;BMP_pressure;BME280_temperature;BME280_humidity;BME280_pressure;Samples;Min_cycle;Max_cycle;Signal;HPM_P1;HPM_P2
2022/02/06 00:00:59;;;;;;;3.10;1.42;;;3.70;99.90;;;;;;5056366;28;20476;-70
2022/02/06 00:03:25;;;;;;;3.63;1.33;;;3.70;99.90;;;;;;5048588;28;20025;-70
2022/02/06 00:05:51;;;;;;;4.03;1.67;;;3.70;99.90;;;;;;5051208;28;20039;-67
2022/02/06 00:08:17;;;;;;;4.10;1.50;;;3.70;99.90;;;;;;5051025;28;20025;-68
2022/02/06 00:10:42;;;;;;;4.47;1.23;;;3.70;99.90;;;;;;5049067;28;20025;-67
2022/02/06 00:13:08;;;;;;;3.92;1.73;;;3.70;99.90;;;;;;5051574;28;20043;-67
2022/02/06 00:15:34;;;;;;;4.05;2.00;;;3.70;99.90;;;;;;5051110;28;20036;-68
2022/02/06 00:17:59;;;;;;;8.75;1.50;;;3.70;99.90;;;;;;5050183;28;20029;-69
2022/02/06 00:20:32;;;;;;;2.67;1.40;;;3.70;99.90;;;;;;5051546;28;20025;-68
2022/02/06 00:23:01;;;;;;;4.13;1.45;;;3.70;99.90;;;;;;5050624;28;20052;-69
2022/02/06 00:33:13;;;;;;;6.78;2.20;;;3.70;99.90;;;;;;5046194;28;20603;-67
2022/02/06 00:43:23;;;;;;;4.50;2.10;;;3.70;99.90;;;;;;5050567;28;20415;-68
2022/02/06 00:45:49;;;;;;;5.20;2.20;;;3.70;99.90;;;;;;5049641;28;20029;-68
2022/02/06 00:48:20;;;;;;;7.88;2.58;;;3.70;99.90;;;;;;5049355;28;20044;-68
2022/02/06 00:50:50;;;;;;;6.60;2.00;;;3.70;99.90;;;;;;5051170;28;20024;-70
2022/02/06 00:53:17;;;;;;;5.20;2.17;;;3.70;99.90;;;;;;5044627;28;20017;-68
2022/02/06 00:55:44;;;;;;;5.97;1.80;;;3.70;99.90;;;;;;5045737;28;20028;-68
2022/02/06 00:58:10;;;;;;;3.33;1.45;;;3.70;99.90;;;;;;5045024;28;20512;-68
2022/02/06 01:00:36;;;;;;;3.60;1.40;;;3.60;99.90;;;;;;5046585;28;20033;-67
2022/02/06 01:03:01;;;;;;;6.63;1.50;;;3.60;99.90;;;;;;5043912;28;20127;-67
2022/02/06 01:05:27;;;;;;;7.60;1.38;;;3.60;99.90;;;;;;5047300;28;20033;-67
2022/02/06 01:07:54;;;;;;;6.20;1.60;;;3.70;99.90;;;;;;5047149;28;20025;-69
2022/02/06 01:10:20;;;;;;;5.18;1.30;;;3.60;99.90;;;;;;5048983;28;20028;-68
2022/02/06 01:12:54;;;;;;;4.55;1.60;;;3.60;99.90;;;;;;5048982;28;20036;-68
2022/02/06 01:15:25;;;;;;;4.63;1.40;;;3.60;99.90;;;;;;5045522;28;20083;-67
2022/02/06 01:17:57;;;;;;;8.10;1.40;;;3.60;99.90;;;;;;5048836;28;20052;-67
2022/02/06 01:20:37;;;;;;;7.63;1.42;;;3.60;99.90;;;;;;5046878;28;20487;-67
2022/02/06 01:23:44;;;;;;;6.78;1.35;;;3.60;99.90;;;;;;5048280;28;20461;-68
2022/02/06 01:25:59;;;;;;;2.53;1.30;;;3.60;99.90;;;;;;5031947;28;20061;-68
2022/02/06 01:28:36;;;;;;;6.53;2.00;;;3.60;99.90;;;;;;5048989;28;20040;-68
2022/02/06 01:33:39;;;;;;;6.20;1.50;;;3.60;99.90;;;;;;5036928;28;20089;-68
2022/02/06 01:36:13;;;;;;;2.45;1.10;;;3.60;99.90;;;;;;5049271;28;20029;-67
2022/02/06 01:39:08;;;;;;;4.80;1.60;;;3.60;99.90;;;;;;5046817;28;20033;-67
2022/02/06 01:41:28;;;;;;;3.95;1.20;;;3.60;99.90;;;;;;5035170;28;20119;-67
2022/02/06 01:43:59;;;;;;;3.85;1.25;;;3.60;99.90;;;;;;5046716;28;20393;-70
2022/02/06 01:57:08;;;;;;;3.10;1.00;;;3.50;99.90;;;;;;5046971;28;20029;-67
2022/02/06 02:00:55;;;;;;;4.80;1.63;;;3.60;99.90;;;;;;5047606;28;20134;-68
2022/02/06 02:03:36;;;;;;;10.15;1.50;;;3.60;99.90;;;;;;5028560;28;20026;-68
2022/02/06 02:48:05;;;;;;;5.80;1.52;;;3.70;99.90;;;;;;5048720;28;20120;-68
2022/02/06 02:50:34;;;;;;;5.63;1.27;;;3.80;99.90;;;;;;5041823;28;20025;-68
2022/02/06 02:53:23;;;;;;;2.25;1.30;;;3.80;99.90;;;;;;5045359;28;20014;-69
2022/02/06 02:56:02;;;;;;;6.90;1.17;;;3.80;99.90;;;;;;5045395;28;20026;-68
2022/02/06 02:58:46;;;;;;;8.27;1.10;;;3.80;99.90;;;;;;5045945;28;20017;-68
2022/02/06 03:01:34;;;;;;;2.53;1.00;;;3.80;99.90;;;;;;5036205;28;20029;-68
2022/02/06 03:04:00;;;;;;;3.92;1.05;;;3.80;99.90;;;;;;5047552;28;20468;-69
2022/02/06 03:06:26;;;;;;;4.25;1.08;;;3.80;99.90;;;;;;5048345;28;20033;-68
2022/02/06 03:08:53;;;;;;;5.50;1.10;;;3.80;99.90;;;;;;5048052;28;20545;-68
2022/02/06 03:11:19;;;;;;;6.32;1.10;;;3.90;99.90;;;;;;5052632;28;20017;-68
2022/02/06 03:18:44;;;;;;;3.33;1.20;;;3.90;99.90;;;;;;5050763;28;20025;-69
2022/02/06 03:21:17;;;;;;;4.18;1.20;;;3.90;99.90;;;;;;5045761;28;20528;-69
2022/02/06 03:23:49;;;;;;;4.88;1.50;;;3.90;99.90;;;;;;5050428;28;20033;-68
2022/02/06 03:26:14;;;;;;;1.75;0.82;;;3.90;99.90;;;;;;5051001;28;20406;-68
2022/02/06 03:28:40;;;;;;;4.13;1.25;;;3.90;99.90;;;;;;5049787;28;20078;-68
2022/02/06 03:31:06;;;;;;;3.67;1.20;;;3.90;99.90;;;;;;5050912;28;20028;-68
2022/02/06 03:33:32;;;;;;;2.65;1.15;;;3.90;99.90;;;;;;5050216;28;20438;-68
2022/02/06 03:35:58;;;;;;;2.80;1.00;;;3.90;99.90;;;;;;5051020;28;20036;-69
2022/02/06 03:38:23;;;;;;;3.92;1.00;;;3.90;99.90;;;;;;5049495;28;20029;-68
2022/02/06 03:41:01;;;;;;;9.30;1.40;;;3.90;99.90;;;;;;5034629;28;20044;-68
2022/02/06 03:43:39;;;;;;;2.28;1.10;;;3.90;99.90;;;;;;5045434;28;20032;-68
2022/02/06 03:46:12;;;;;;;11.38;1.30;;;3.90;99.90;;;;;;5050950;28;20060;-68
2022/02/06 03:48:52;;;;;;;3.50;0.93;;;3.80;99.90;;;;;;5047225;28;20021;-68
2022/02/06 03:51:20;;;;;;;3.40;1.13;;;3.80;99.90;;;;;;5050488;28;20020;-68
2022/02/06 03:53:49;;;;;;;4.10;1.13;;;3.80;99.90;;;;;;5050471;28;20025;-68
2022/02/06 03:56:14;;;;;;;7.47;1.38;;;3.90;99.90;;;;;;5050381;28;20025;-68
2022/02/06 03:58:40;;;;;;;2.58;1.13;;;3.80;99.90;;;;;;5049927;28;20025;-68
2022/02/06 04:01:06;;;;;;;2.80;1.08;;;3.80;99.90;;;;;;5049553;28;20523;-68
2022/02/06 04:03:31;;;;;;;5.28;1.30;;;3.80;99.90;;;;;;5049301;28;20043;-68
2022/02/06 04:05:57;;;;;;;3.22;1.10;;;3.80;99.90;;;;;;5049800;28;20033;-68
2022/02/06 04:08:24;;;;;;;3.30;1.10;;;3.80;99.90;;;;;;5048889;28;20032;-68
2022/02/06 04:10:51;;;;;;;2.03;1.10;;;3.80;99.90;;;;;;5038083;28;20075;-68
2022/02/06 04:13:25;;;;;;;3.65;1.15;;;3.80;99.90;;;;;;5045988;28;20738;-68
2022/02/06 04:15:59;;;;;;;5.00;1.23;;;3.80;99.90;;;;;;5042217;28;20029;-68
2022/02/06 04:21:00;;;;;;;4.40;1.15;;;3.90;99.90;;;;;;5049738;28;20074;-68
2022/02/06 04:23:26;;;;;;;4.35;1.10;;;3.90;99.90;;;;;;5049740;28;20024;-68
2022/02/06 04:25:52;;;;;;;3.55;1.25;;;3.80;99.90;;;;;;5049610;28;20017;-68
2022/02/06 04:28:17;;;;;;;1.80;1.00;;;3.90;99.90;;;;;;5049503;28;20028;-68
2022/02/06 04:30:43;;;;;;;2.95;1.08;;;3.90;99.90;;;;;;5050685;28;20044;-68
2022/02/06 04:33:09;;;;;;;3.83;1.00;;;3.90;99.90;;;;;;5050641;28;20029;-68
2022/02/06 04:35:37;;;;;;;2.28;0.98;;;3.90;99.90;;;;;;5050637;28;20439;-68
2022/02/06 04:38:25;;;;;;;5.40;1.15;;;3.90;99.90;;;;;;5049262;28;20055;-68
2022/02/06 04:41:12;;;;;;;2.22;0.88;;;3.90;99.90;;;;;;5049191;28;20032;-68
2022/02/06 05:21:35;;;;;;;4.82;1.20;;;4.10;99.90;;;;;;5058469;28;20138;-68
2022/02/06 05:34:12;;;;;;;4.50;1.23;;;4.10;99.90;;;;;;5062289;28;20472;-69
2022/02/06 05:36:38;;;;;;;2.10;1.23;;;4.10;99.90;;;;;;5067933;28;20503;-69
2022/02/06 05:39:04;;;;;;;10.23;1.98;;;4.10;99.90;;;;;;5066318;28;20036;-70
2022/02/06 05:41:29;;;;;;;4.18;0.90;;;4.20;99.90;;;;;;5068453;28;20725;-69
2022/02/06 05:43:55;;;;;;;6.15;1.40;;;4.20;99.90;;;;;;5067997;28;20821;-68
2022/02/06 05:46:21;;;;;;;6.07;1.10;;;4.20;99.90;;;;;;5068347;28;20055;-69
2022/02/06 05:48:46;;;;;;;4.28;1.23;;;4.20;99.90;;;;;;5068465;28;20032;-68
2022/02/06 05:51:15;;;;;;;6.07;1.35;;;4.20;99.90;;;;;;5064402;28;20127;-68
2022/02/06 05:53:42;;;;;;;3.70;0.95;;;4.20;99.90;;;;;;5063349;28;20043;-69
2022/02/06 05:56:08;;;;;;;2.65;0.93;;;4.20;99.90;;;;;;5068592;28;20047;-69
2022/02/06 05:58:33;;;;;;;3.75;1.30;;;4.20;99.90;;;;;;5065544;28;20032;-69
2022/02/06 06:00:59;;;;;;;3.13;0.88;;;4.20;99.90;;;;;;5068742;28;20035;-69
2022/02/06 06:03:25;;;;;;;6.63;1.20;;;4.20;99.90;;;;;;5068037;28;20028;-69
2022/02/06 06:05:51;;;;;;;5.07;1.25;;;4.20;99.90;;;;;;5068563;28;20064;-70
2022/02/06 06:08:16;;;;;;;4.32;1.15;;;4.20;99.90;;;;;;5066194;28;20374;-69
2022/02/06 06:10:42;;;;;;;4.95;1.25;;;4.20;99.90;;;;;;5066555;28;20183;-68
2022/02/06 06:13:09;;;;;;;2.08;1.10;;;4.20;99.90;;;;;;5068326;28;20028;-68
2022/02/06 06:15:35;;;;;;;6.63;1.20;;;4.20;99.90;;;;;;5067924;28;20488;-69
2022/02/06 06:18:04;;;;;;;3.85;1.20;;;4.20;99.90;;;;;;5066435;28;20036;-68
2022/02/06 06:20:31;;;;;;;6.32;1.02;;;4.20;99.90;;;;;;5067292;28;20024;-69
2022/02/06 06:22:57;;;;;;;4.80;1.10;;;4.20;99.90;;;;;;5066667;28;20033;-69
2022/02/06 06:25:26;;;;;;;4.32;1.27;;;4.30;99.90;;;;;;5067117;28;21551;-69
2022/02/06 06:27:51;;;;;;;3.42;1.20;;;4.30;99.90;;;;;;5062002;28;20024;-69
2022/02/06 06:30:17;;;;;;;7.15;1.30;;;4.30;99.90;;;;;;5067499;28;20017;-68
2022/02/06 06:32:42;;;;;;;4.55;1.25;;;4.30;99.90;;;;;;5046312;28;20040;-68
2022/02/06 06:35:08;;;;;;;2.22;1.00;;;4.30;99.90;;;;;;5056632;28;20067;-68
2022/02/06 06:37:38;;;;;;;4.38;1.20;;;4.30;99.90;;;;;;5067573;28;20049;-68
2022/02/06 06:40:05;;;;;;;2.55;1.00;;;4.30;99.90;;;;;;5068244;28;20060;-69
2022/02/06 06:42:30;;;;;;;6.13;1.38;;;4.30;99.90;;;;;;5068904;28;20033;-68
2022/02/06 06:44:56;;;;;;;5.35;1.63;;;4.30;99.90;;;;;;5073179;28;20101;-69
2022/02/06 06:47:21;;;;;;;3.22;0.85;;;4.30;99.90;;;;;;5072284;28;20020;-68
2022/02/06 06:49:47;;;;;;;3.30;1.00;;;4.40;99.90;;;;;;5073468;28;20074;-68
2022/02/06 06:52:12;;;;;;;5.80;1.42;;;4.40;99.90;;;;;;5072044;28;21836;-69
2022/02/06 06:54:40;;;;;;;4.68;1.25;;;4.40;99.90;;;;;;5073043;28;20078;-69
2022/02/06 06:57:12;;;;;;;3.35;0.95;;;4.40;99.90;;;;;;5071970;28;20024;-69
2022/02/06 07:02:16;;;;;;;4.18;1.20;;;4.40;99.90;;;;;;5064825;28;20040;-68
2022/02/06 07:04:43;;;;;;;5.32;1.27;;;4.40;99.90;;;;;;5072676;28;20056;-70
2022/02/06 07:07:09;;;;;;;3.95;1.10;;;4.50;99.90;;;;;;5071503;28;20056;-69
2022/02/06 07:09:34;;;;;;;5.00;1.23;;;4.50;99.90;;;;;;5073191;28;20064;-68
2022/02/06 07:12:00;;;;;;;4.32;1.10;;;4.50;99.90;;;;;;5072454;28;20028;-68
2022/02/06 07:14:26;;;;;;;4.45;1.10;;;4.50;99.90;;;;;;5072911;28;20699;-69
2022/02/06 07:16:51;;;;;;;4.53;1.10;;;4.60;99.90;;;;;;5072653;28;20031;-69
2022/02/06 07:19:18;;;;;;;5.70;1.10;;;4.60;99.90;;;;;;5068551;28;20040;-68
2022/02/06 07:21:44;;;;;;;4.90;1.27;;;4.60;99.90;;;;;;5071651;28;20385;-68
2022/02/06 07:24:09;;;;;;;5.63;1.30;;;4.60;99.90;;;;;;5071560;28;20111;-69
2022/02/06 07:26:35;;;;;;;6.03;1.38;;;4.60;99.90;;;;;;5067915;28;20020;-69
2022/02/06 07:29:02;;;;;;;3.92;1.10;;;4.60;99.90;;;;;;5060567;28;20067;-69
2022/02/06 07:31:28;;;;;;;3.45;1.00;;;4.70;99.90;;;;;;5069309;28;20025;-68
2022/02/06 07:33:54;;;;;;;4.20;1.08;;;4.70;99.90;;;;;;5072495;28;20036;-69
2022/02/06 07:36:20;;;;;;;4.38;1.25;;;4.70;99.90;;;;;;5071066;28;20059;-68
2022/02/06 07:38:47;;;;;;;3.10;1.13;;;4.70;99.90;;;;;;5043094;28;20079;-69
2022/02/06 07:41:13;;;;;;;6.28;1.20;;;4.80;99.90;;;;;;5064498;28;20112;-68
2022/02/06 07:43:39;;;;;;;2.42;1.20;;;4.80;99.90;;;;;;5071649;28;20048;-69
2022/02/06 07:46:10;;;;;;;2.33;1.00;;;4.80;99.90;;;;;;5068040;28;20429;-68
2022/02/06 07:48:35;;;;;;;3.40;1.27;;;4.80;99.90;;;;;;5070825;28;20020;-69
2022/02/06 07:51:03;;;;;;;4.30;1.20;;;4.80;99.90;;;;;;5072025;28;20207;-69
2022/02/06 07:53:29;;;;;;;3.75;1.40;;;4.90;99.90;;;;;;5065667;28;20023;-68
2022/02/06 07:55:55;;;;;;;4.00;1.38;;;4.90;99.90;;;;;;5070284;28;20040;-68
2022/02/06 07:58:20;;;;;;;3.45;1.00;;;4.90;99.90;;;;;;5069162;28;20538;-69
2022/02/06 08:00:46;;;;;;;4.22;1.10;;;4.90;99.90;;;;;;5068779;28;20036;-69
2022/02/06 08:03:11;;;;;;;6.20;1.45;;;4.90;99.90;;;;;;5071496;28;20097;-70
2022/02/06 08:05:37;;;;;;;4.47;1.30;;;5.00;99.90;;;;;;5071785;28;20040;-68
2022/02/06 08:08:11;;;;;;;3.72;1.20;;;5.00;99.90;;;;;;5062130;28;20050;-69
2022/02/06 08:10:36;;;;;;;4.60;1.10;;;5.00;99.90;;;;;;5071392;28;20029;-68
2022/02/06 08:13:08;;;;;;;2.40;1.00;;;5.00;99.90;;;;;;5071121;28;20033;-69
2022/02/06 08:15:34;;;;;;;6.05;1.65;;;5.00;99.90;;;;;;5067568;28;20047;-69
2022/02/06 08:18:00;;;;;;;5.35;1.25;;;5.00;99.90;;;;;;5073535;28;20514;-68
2022/02/06 08:20:25;;;;;;;2.03;1.02;;;5.10;99.90;;;;;;5069942;28;20037;-69
2022/02/06 08:22:54;;;;;;;2.17;1.10;;;5.00;99.90;;;;;;5071487;28;20556;-69
2022/02/06 08:25:20;;;;;;;2.65;1.25;;;5.10;99.90;;;;;;5070841;28;20100;-70
2022/02/06 08:27:46;;;;;;;2.75;0.93;;;5.10;99.90;;;;;;5068481;28;20031;-69
2022/02/06 08:30:14;;;;;;;3.30;1.27;;;5.10;99.90;;;;;;5070968;28;20031;-68
2022/02/06 08:32:40;;;;;;;5.35;1.30;;;5.10;99.90;;;;;;5069748;28;20035;-69
2022/02/06 08:35:06;;;;;;;3.95;1.20;;;5.10;99.90;;;;;;5070981;28;20030;-69
2022/02/06 08:37:32;;;;;;;6.22;1.30;;;5.20;99.90;;;;;;5069579;28;20029;-69
2022/02/06 08:40:01;;;;;;;5.25;1.80;;;5.20;99.90;;;;;;5068040;28;20047;-68
2022/02/06 08:42:27;;;;;;;5.28;1.38;;;5.10;99.90;;;;;;5067620;28;20082;-70
2022/02/06 08:44:53;;;;;;;3.92;1.08;;;5.20;99.90;;;;;;5069447;28;20434;-70
2022/02/06 08:47:19;;;;;;;4.05;1.20;;;5.20;99.90;;;;;;5069530;28;20099;-70
2022/02/06 08:49:45;;;;;;;4.15;1.10;;;5.20;99.90;;;;;;5068320;28;20103;-70
2022/02/06 08:52:12;;;;;;;1.98;1.02;;;5.20;99.90;;;;;;5070705;28;20029;-70
2022/02/06 08:54:39;;;;;;;5.72;1.10;;;5.20;99.90;;;;;;5069951;28;20442;-69
2022/02/06 08:57:24;;;;;;;6.82;1.23;;;5.20;99.90;;;;;;5069803;28;20030;-70
2022/02/06 08:59:51;;;;;;;6.80;1.85;;;5.30;99.90;;;;;;5070367;28;20062;-70
2022/02/06 09:02:17;;;;;;;6.93;1.17;;;5.30;99.90;;;;;;5069187;28;20119;-69
2022/02/06 09:04:47;;;;;;;5.38;1.25;;;5.30;99.90;;;;;;5066150;28;20024;-71
2022/02/06 09:07:13;;;;;;;4.65;1.00;;;5.30;99.90;;;;;;5046380;28;20025;-70
2022/02/06 09:09:44;;;;;;;4.05;1.38;;;5.30;99.90;;;;;;5066549;28;20044;-70
2022/02/06 09:12:10;;;;;;;3.38;1.10;;;5.40;99.90;;;;;;5070863;28;20040;-69
2022/02/06 09:14:36;;;;;;;2.78;0.95;;;5.40;99.90;;;;;;5070038;28;20059;-69
2022/02/06 09:17:02;;;;;;;3.05;0.88;;;5.40;99.90;;;;;;5064163;28;20036;-70
2022/02/06 09:19:28;;;;;;;3.97;1.15;;;5.50;99.90;;;;;;5069433;28;20070;-69
2022/02/06 09:21:54;;;;;;;3.13;1.00;;;5.50;99.90;;;;;;5070662;28;20036;-70
2022/02/06 09:24:20;;;;;;;7.20;1.40;;;5.50;99.90;;;;;;5046118;28;20032;-69
2022/02/06 09:26:47;;;;;;;6.13;1.10;;;5.50;99.90;;;;;;5065191;28;20100;-69
2022/02/06 09:29:13;;;;;;;3.85;1.05;;;5.50;99.90;;;;;;5063807;28;20028;-70
2022/02/06 09:31:38;;;;;;;4.35;0.95;;;5.60;99.90;;;;;;5056713;28;20021;-71
2022/02/06 09:36:31;;;;;;;4.35;1.13;;;5.60;99.90;;;;;;5054521;28;20115;-70
2022/02/06 09:38:57;;;;;;;2.58;1.40;;;5.50;99.90;;;;;;5039714;28;20409;-69
2022/02/06 09:41:23;;;;;;;5.05;1.55;;;5.50;99.90;;;;;;5060215;28;20075;-71
2022/02/06 09:43:50;;;;;;;3.33;1.20;;;5.60;99.90;;;;;;5051215;28;20025;-69
2022/02/06 09:46:19;;;;;;;3.67;1.58;;;5.60;99.90;;;;;;5061254;28;20040;-73
2022/02/06 09:48:46;;;;;;;3.03;1.20;;;5.60;99.90;;;;;;5069222;28;20416;-69
2022/02/06 09:51:11;;;;;;;3.22;1.00;;;5.60;99.90;;;;;;5065046;28;20055;-69
2022/02/06 09:53:38;;;;;;;5.75;1.30;;;5.70;99.90;;;;;;5068421;28;20029;-69
2022/02/06 09:56:09;;;;;;;6.03;1.35;;;5.70;99.90;;;;;;5069517;28;20033;-70
2022/02/06 09:58:56;;;;;;;6.40;1.45;;;5.70;99.90;;;;;;5065487;28;20090;-70
2022/02/06 10:01:24;;;;;;;4.07;1.30;;;5.70;99.90;;;;;;5063516;28;20483;-70
2022/02/06 10:03:55;;;;;;;3.28;1.00;;;5.80;99.90;;;;;;5069621;28;20039;-70
2022/02/06 10:06:24;;;;;;;2.17;1.10;;;5.80;99.90;;;;;;5063810;28;20024;-70
2022/02/06 10:08:56;;;;;;;5.32;1.15;;;5.80;99.90;;;;;;5067869;28;20305;-70
2022/02/06 10:11:23;;;;;;;;;;;5.80;99.90;;;;;;5066824;28;20024;-70
2022/02/06 10:13:49;;;;;;;3.15;0.98;;;5.80;99.90;;;;;;5067236;28;19918;-70
2022/02/06 10:16:16;;;;;;;2.78;1.23;;;5.90;99.90;;;;;;5070511;28;20108;-70
2022/02/06 10:18:44;;;;;;;5.35;1.40;;;5.90;99.90;;;;;;5067309;28;20020;-69
2022/02/06 10:21:14;;;;;;;5.07;1.30;;;6.00;99.90;;;;;;5069196;28;20412;-70
2022/02/06 10:23:53;;;;;;;3.60;1.10;;;6.00;99.90;;;;;;5067156;28;20461;-70
2022/02/06 10:26:40;;;;;;;3.20;1.25;;;6.00;99.90;;;;;;5044836;28;20463;-71
2022/02/06 10:31:42;;;;;;;5.50;1.20;;;6.10;99.90;;;;;;5069288;28;20051;-71
2022/02/06 10:34:27;;;;;;;3.72;1.00;;;6.10;99.90;;;;;;5070436;28;20048;-68
2022/02/06 10:37:19;;;;;;;4.93;1.15;;;6.20;99.90;;;;;;5071446;28;20029;-69
2022/02/06 10:39:53;;;;;;;4.47;0.85;;;6.20;99.90;;;;;;5062245;28;20037;-70
2022/02/06 10:42:28;;;;;;;3.80;1.10;;;6.20;99.90;;;;;;5042730;28;20342;-69
2022/02/06 10:45:25;;;;;;;5.95;1.20;;;6.20;99.90;;;;;;5054504;28;20366;-69
2022/02/06 10:47:52;;;;;;;8.98;1.55;;;6.20;99.90;;;;;;5065023;28;20047;-69
2022/02/06 10:50:25;;;;;;;4.05;1.30;;;6.20;99.90;;;;;;5066233;28;20027;-68
2022/02/06 10:52:50;;;;;;;;;;;6.20;99.90;;;;;;5058254;28;20025;-68
2022/02/06 10:55:19;;;;;;;2.60;0.70;;;6.30;99.90;;;;;;5065969;28;19912;-69
2022/02/06 10:58:00;;;;;;;1.95;0.82;;;6.30;99.90;;;;;;5068077;28;20048;-68
2022/02/06 11:00:27;;;;;;;5.70;0.95;;;6.30;99.90;;;;;;5066226;28;20110;-69
2022/02/06 11:03:00;;;;;;;3.92;1.00;;;6.30;99.90;;;;;;5064175;28;20032;-69
2022/02/06 11:05:34;;;;;;;4.68;1.38;;;6.30;99.90;;;;;;5062569;28;20566;-69
2022/02/06 11:08:03;;;;;;;4.40;0.70;;;6.40;99.90;;;;;;5068272;28;20021;-69
2022/02/06 11:10:31;;;;;;;4.03;1.05;;;6.40;99.90;;;;;;5069503;28;20121;-69
2022/02/06 11:15:30;;;;;;;1.92;1.30;;;6.40;99.90;;;;;;5088194;28;20557;-69
2022/02/06 11:18:22;;;;;;;1.52;1.10;;;6.40;99.90;;;;;;5069220;28;20024;-69
2022/02/06 11:21:07;;;;;;;3.35;0.90;;;6.40;99.90;;;;;;5089900;28;20417;-70
2022/02/06 11:23:38;;;;;;;2.15;0.75;;;6.50;99.90;;;;;;5089596;28;20028;-69
2022/02/06 11:26:10;;;;;;;2.67;1.00;;;6.50;99.90;;;;;;5089396;28;20048;-70
2022/02/06 11:28:37;;;;;;;2.33;1.10;;;6.50;99.90;;;;;;5088418;28;20028;-69
2022/02/06 11:31:02;;;;;;;3.05;0.93;;;6.50;99.90;;;;;;5092536;28;20109;-70
2022/02/06 11:33:28;;;;;;;3.38;0.98;;;6.50;99.90;;;;;;5092797;28;20028;-70
2022/02/06 11:35:59;;;;;;;3.67;1.00;;;6.60;99.90;;;;;;5073712;28;20043;-70
2022/02/06 11:44:46;;;;;;;3.47;1.00;;;6.50;99.90;;;;;;5093058;28;20030;-69
2022/02/06 11:47:12;;;;;;;2.00;1.08;;;6.40;99.90;;;;;;5067844;28;20752;-68
2022/02/06 11:49:41;;;;;;;2.13;0.80;;;6.40;99.90;;;;;;5088329;28;20016;-68
2022/02/06 11:52:07;;;;;;;1.08;0.82;;;6.30;99.90;;;;;;5087811;28;20028;-68
2022/02/06 11:54:35;;;;;;;4.55;1.27;;;6.30;99.90;;;;;;5092730;28;20023;-68
2022/02/06 11:57:33;;;;;;;4.60;0.90;;;6.20;99.90;;;;;;5091487;28;20054;-70
2022/02/06 12:00:07;;;;;;;6.22;1.05;;;6.20;99.90;;;;;;5092338;28;20058;-67
2022/02/06 12:02:32;;;;;;;4.15;1.42;;;6.10;99.90;;;;;;5092094;28;20024;-68
2022/02/06 12:05:14;;;;;;;2.13;1.00;;;6.10;99.90;;;;;;5111249;28;20032;-69
2022/02/06 12:07:52;;;;;;;2.60;1.30;;;6.00;99.90;;;;;;5066956;28;20032;-66
2022/02/06 12:10:33;;;;;;;4.32;1.00;;;6.00;99.90;;;;;;5086715;28;20099;-66
2022/02/06 12:13:17;;;;;;;2.38;0.90;;;6.00;99.90;;;;;;5073028;28;20299;-69
2022/02/06 12:16:18;;;;;;;2.92;1.00;;;5.90;99.90;;;;;;5071845;28;20156;-65
2022/02/06 12:18:43;;;;;;;3.72;1.10;;;5.90;99.90;;;;;;5086271;28;20545;-66
2022/02/06 12:21:20;;;;;;;1.70;0.80;;;5.90;99.90;;;;;;5090636;28;20044;-67
2022/02/06 12:23:58;;;;;;;2.80;1.02;;;5.90;99.90;;;;;;5090853;28;20521;-66
2022/02/06 12:28:53;;;;;;;1.52;0.90;;;5.90;99.90;;;;;;5088149;28;20391;-67
2022/02/06 12:31:32;;;;;;;4.75;2.92;;;5.80;99.90;;;;;;5091927;28;20053;-66
2022/02/06 12:37:30;;;;;;;3.17;1.27;;;5.90;99.90;;;;;;5027755;28;20035;-66
2022/02/06 12:39:59;;;;;;;3.00;1.35;;;5.90;99.90;;;;;;5074096;28;20024;-66
2022/02/06 12:42:26;;;;;;;3.58;1.48;;;5.90;99.90;;;;;;5091787;28;20502;-65
2022/02/06 12:44:54;;;;;;;3.63;1.20;;;5.90;99.90;;;;;;5072890;28;20119;-66
2022/02/06 12:47:21;;;;;;;6.03;1.52;;;6.00;99.90;;;;;;5090747;28;20024;-67
2022/02/06 12:49:47;;;;;;;4.43;1.27;;;6.00;99.90;;;;;;5090945;28;20115;-67
2022/02/06 12:52:12;;;;;;;3.92;2.65;;;6.00;99.90;;;;;;5091633;28;20107;-67
2022/02/06 12:54:38;;;;;;;2.80;1.83;;;6.00;99.90;;;;;;5085852;28;20070;-68
2022/02/06 12:57:04;;;;;;;4.18;1.20;;;6.10;99.90;;;;;;5084434;28;20472;-67
2022/02/06 12:59:32;;;;;;;1.08;0.75;;;6.10;99.90;;;;;;5089550;28;20193;-68
2022/02/06 13:01:58;;;;;;;2.13;1.00;;;6.10;99.90;;;;;;5090186;28;20449;-68
2022/02/06 13:04:30;;;;;;;3.97;0.95;;;6.20;99.90;;;;;;5091168;28;20028;-68
2022/02/06 13:07:02;;;;;;;2.25;0.70;;;6.20;99.90;;;;;;5090175;28;20031;-68
2022/02/06 13:09:35;;;;;;;2.17;1.00;;;6.20;99.90;;;;;;5087692;28;20059;-68
2022/02/06 13:14:54;;;;;;;1.67;0.90;;;6.30;99.90;;;;;;5093463;28;20043;-66
2022/02/06 13:26:10;;;;;;;1.30;0.90;;;6.30;99.90;;;;;;5087119;28;20039;-68
2022/02/06 13:28:46;;;;;;;1.38;0.65;;;6.30;99.90;;;;;;5067766;28;20020;-67
2022/02/06 13:31:33;;;;;;;1.33;0.70;;;6.30;99.90;;;;;;5089584;28;20020;-66
2022/02/06 13:39:09;;;;;;;1.75;0.70;;;6.10;99.90;;;;;;5088628;28;20020;-68
2022/02/06 13:41:35;;;;;;;0.80;0.50;;;6.10;99.90;;;;;;5085274;28;20595;-70
2022/02/06 13:44:02;;;;;;;2.17;0.80;;;6.00;99.90;;;;;;5074335;28;20115;-69
2022/02/06 13:46:33;;;;;;;3.13;0.93;;;6.00;99.90;;;;;;5071688;28;20115;-69
2022/02/06 13:48:59;;;;;;;1.00;0.85;;;5.90;99.90;;;;;;5090654;28;20035;-70
2022/02/06 13:51:32;;;;;;;3.22;0.70;;;5.90;99.90;;;;;;5069591;28;20051;-70
2022/02/06 13:54:00;;;;;;;1.83;0.70;;;5.90;99.90;;;;;;5090015;28;20020;-69
2022/02/06 13:56:28;;;;;;;1.38;0.80;;;5.80;99.90;;;;;;5090115;28;20039;-70
2022/02/06 13:59:03;;;;;;;1.95;0.77;;;5.80;99.90;;;;;;5088862;28;20016;-70
2022/02/06 14:01:40;;;;;;;0.95;0.70;;;5.70;99.90;;;;;;5079400;28;20020;-70
2022/02/06 14:04:17;;;;;;;2.13;0.63;;;5.70;99.90;;;;;;5069524;28;20028;-70
2022/02/06 14:06:48;;;;;;;2.58;0.80;;;5.70;99.90;;;;;;5089065;28;20028;-71
2022/02/06 14:09:22;;;;;;;0.65;0.57;;;5.60;99.90;;;;;;5088971;28;20026;-71
2022/02/06 14:12:07;;;;;;;0.63;0.63;;;5.60;99.90;;;;;;5072261;28;20119;-71
2022/02/06 14:14:46;;;;;;;3.35;0.75;;;5.50;99.90;;;;;;5063855;28;20028;-71
2022/02/06 14:17:20;;;;;;;1.98;0.70;;;5.50;99.90;;;;;;5092724;28;20100;-71
2022/02/06 14:19:47;;;;;;;0.90;0.82;;;5.40;99.90;;;;;;5073032;28;20067;-71
2022/02/06 14:22:35;;;;;;;1.25;0.60;;;5.40;99.90;;;;;;5087512;28;20020;-70
2022/02/06 14:25:24;;;;;;;0.95;0.80;;;5.30;99.90;;;;;;5089580;28;20103;-72
2022/02/06 14:27:49;;;;;;;0.63;0.63;;;5.30;99.90;;;;;;5077516;28;20044;-71
2022/02/06 14:30:36;;;;;;;0.80;0.77;;;5.20;99.90;;;;;;5090082;28;20047;-70
2022/02/06 14:33:10;;;;;;;3.17;2.05;;;5.20;99.90;;;;;;5084018;28;20024;-71
2022/02/06 14:36:00;;;;;;;0.75;0.60;;;5.10;99.90;;;;;;5087260;28;20341;-70
2022/02/06 14:44:07;;;;;;;1.42;0.73;;;5.00;99.90;;;;;;5087681;28;20039;-70
2022/02/06 14:46:35;;;;;;;1.00;0.70;;;5.00;99.90;;;;;;5088901;28;20435;-70
2022/02/06 14:49:07;;;;;;;0.57;0.57;;;5.00;99.90;;;;;;5089017;28;20016;-70
2022/02/06 14:51:37;;;;;;;;;;;5.00;99.90;;;;;;5088782;28;20503;-71
2022/02/06 14:54:05;;;;;;;1.48;0.88;;;5.00;99.90;;;;;;5088824;28;20261;-69
2022/02/06 14:56:34;;;;;;;1.75;0.70;;;4.90;99.90;;;;;;5069246;28;20024;-71
2022/02/06 14:59:00;;;;;;;1.45;0.70;;;4.90;99.90;;;;;;5084075;28;20491;-68
2022/02/06 15:01:26;;;;;;;0.60;0.60;;;4.90;99.90;;;;;;5085821;28;20024;-71
2022/02/06 15:03:52;;;;;;;0.75;0.70;;;4.90;99.90;;;;;;5069711;28;20029;-68
2022/02/06 15:06:18;;;;;;;1.23;0.70;;;4.90;99.90;;;;;;5097464;28;20024;-70
2022/02/06 15:08:44;;;;;;;1.10;0.60;;;4.90;99.90;;;;;;5103103;28;20028;-69
2022/02/06 15:11:10;;;;;;;0.70;0.70;;;4.80;99.90;;;;;;5093409;28;20028;-70
2022/02/06 15:13:35;;;;;;;1.02;0.90;;;4.90;99.90;;;;;;5092420;28;20020;-69
2022/02/06 15:16:16;;;;;;;2.45;1.08;;;4.90;99.90;;;;;;5074947;28;20391;-68
2022/02/06 15:18:52;;;;;;;0.68;0.68;;;4.80;99.90;;;;;;5091232;28;20016;-72
2022/02/06 15:21:18;;;;;;;1.10;1.00;;;4.80;99.90;;;;;;5082737;28;20028;-69
2022/02/06 15:23:44;;;;;;;0.50;0.50;;;4.80;99.90;;;;;;5091697;28;20070;-68
2022/02/06 15:26:10;;;;;;;0.77;0.60;;;4.80;99.90;;;;;;5092374;28;20081;-71
2022/02/06 15:28:35;;;;;;;0.52;0.50;;;4.70;99.90;;;;;;5090536;28;20032;-68
2022/02/06 15:31:01;;;;;;;0.40;0.40;;;4.70;99.90;;;;;;5093272;28;20056;-68
2022/02/06 15:33:26;;;;;;;0.60;0.60;;;4.70;99.90;;;;;;5091377;28;20080;-68
2022/02/06 15:35:52;;;;;;;0.90;0.55;;;4.70;99.90;;;;;;5093915;28;20028;-68
2022/02/06 15:38:21;;;;;;;0.60;0.60;;;4.70;99.90;;;;;;5071103;28;20023;-70
2022/02/06 15:40:48;;;;;;;0.85;0.60;;;4.70;99.90;;;;;;5088062;28;20024;-69
2022/02/06 15:43:14;;;;;;;0.65;0.60;;;4.70;99.90;;;;;;5088894;28;20031;-68
2022/02/06 15:45:40;;;;;;;1.00;0.70;;;4.70;99.90;;;;;;5095585;28;20028;-68
2022/02/06 15:48:09;;;;;;;0.55;0.50;;;4.70;99.90;;;;;;5068300;28;20017;-68
2022/02/06 15:50:35;;;;;;;0.82;0.60;;;4.70;99.90;;;;;;5093018;28;20020;-69
2022/02/06 15:53:01;;;;;;;0.60;0.60;;;4.70;99.90;;;;;;5080699;28;20031;-68
2022/02/06 15:55:27;;;;;;;0.65;0.50;;;4.70;99.90;;;;;;5095705;28;20032;-69
2022/02/06 15:57:52;;;;;;;1.85;0.70;;;4.80;99.90;;;;;;5094231;28;20028;-68
2022/02/06 16:00:18;;;;;;;0.57;0.50;;;4.80;99.90;;;;;;5092038;28;20622;-68
2022/02/06 16:02:44;;;;;;;0.60;0.60;;;4.80;99.90;;;;;;5075769;28;20111;-69